createdAt,value
2023-08-27T00:02:39.572Z,15.70
2023-08-27T00:07:42.435Z,15.65
2023-08-27T00:12:45.378Z,15.64
2023-08-27T00:17:49.756Z,15.60
2023-08-27T00:22:54.678Z,15.58
2023-08-27T00:27:57.820Z,15.54
2023-08-27T00:33:02.587Z,15.45
2023-08-27T00:38:07.037Z,15.47
2023-08-27T00:43:10.439Z,15.42
2023-08-27T00:48:15.013Z,15.40
2023-08-27T00:53:19.460Z,15.41
2023-08-27T00:58:23.149Z,15.44
2023-08-27T01:03:27.881Z,15.43
2023-08-27T01:08:39.594Z,15.40
2023-08-27T01:13:48.613Z,15.35
2023-08-27T01:18:54.572Z,15.36
2023-08-27T01:23:58.876Z,15.35
2023-08-27T01:29:07.801Z,15.28
2023-08-27T01:34:14.401Z,15.31
2023-08-27T01:39:18.803Z,15.30
2023-08-27T01:44:21.960Z,15.32
2023-08-27T01:49:25.013Z,15.31
2023-08-27T01:54:29.436Z,15.32
2023-08-27T01:59:32.609Z,15.30
2023-08-27T02:04:35.744Z,15.31
2023-08-27T02:09:40.202Z,15.30
2023-08-27T02:14:44.569Z,15.31
2023-08-27T02:19:47.653Z,15.32
2023-08-27T02:24:58.534Z,15.34
2023-08-27T02:30:01.679Z,15.33
2023-08-27T02:35:06.256Z,15.34
2023-08-27T02:40:11.675Z,15.17
2023-08-27T02:45:14.893Z,15.07
2023-08-27T02:50:18.059Z,15.03
2023-08-27T02:55:22.605Z,15.01
2023-08-27T03:00:25.930Z,15.01
2023-08-27T03:05:29.135Z,14.97
2023-08-27T03:10:33.846Z,14.96
2023-08-27T03:15:36.966Z,14.96
2023-08-27T03:20:40.003Z,15.00
2023-08-27T03:25:44.423Z,15.05
2023-08-27T03:30:47.598Z,15.03
2023-08-27T03:35:56.469Z,15.00
2023-08-27T03:41:04.132Z,14.98
2023-08-27T03:46:07.491Z,14.99
2023-08-27T03:51:10.700Z,14.97
2023-08-27T03:56:20.983Z,14.96
2023-08-27T04:01:24.435Z,14.96
2023-08-27T04:06:41.998Z,14.93
2023-08-27T04:11:50.755Z,14.89
2023-08-27T04:16:56.651Z,14.94
2023-08-27T04:22:04.501Z,15.00
2023-08-27T04:27:09.485Z,15.10
2023-08-27T04:32:18.361Z,15.12
2023-08-27T04:37:21.465Z,15.10
2023-08-27T04:42:25.956Z,15.11
2023-08-27T04:47:29.004Z,15.12
2023-08-27T04:52:32.999Z,15.09
2023-08-27T04:57:38.389Z,15.17
2023-08-27T05:02:41.706Z,15.21
2023-08-27T05:07:45.143Z,15.19
2023-08-27T05:12:49.607Z,15.19
2023-08-27T05:17:55.107Z,15.21
2023-08-27T05:22:59.603Z,15.27
2023-08-27T05:28:05.571Z,15.29
2023-08-27T05:33:09.097Z,15.27
2023-08-27T05:38:12.283Z,15.29
2023-08-27T05:43:16.829Z,15.14
2023-08-27T05:48:19.945Z,15.12
2023-08-27T05:53:23.433Z,15.31
2023-08-27T05:58:28.346Z,15.48
2023-08-27T06:03:31.807Z,15.52
2023-08-27T06:08:35.003Z,15.45
2023-08-27T06:13:39.760Z,15.42
2023-08-27T06:18:42.865Z,15.44
2023-08-27T06:23:46.107Z,15.47
2023-08-27T06:28:50.584Z,15.51
2023-08-27T06:34:18.791Z,15.51
2023-08-27T06:39:21.888Z,15.53
2023-08-27T06:44:29.491Z,15.55
2023-08-27T06:49:34.460Z,15.58
2023-08-27T06:54:40.923Z,15.60
2023-08-27T06:59:45.659Z,15.73
2023-08-27T07:04:51.356Z,15.96
2023-08-27T07:09:54.591Z,16.16
2023-08-27T07:15:01.974Z,16.35
2023-08-27T07:20:08.733Z,16.48
2023-08-27T07:25:16.494Z,16.71
2023-08-27T07:30:22.701Z,16.87
2023-08-27T07:35:27.254Z,16.95
2023-08-27T07:40:36.385Z,16.87
2023-08-27T07:45:44.047Z,17.08
2023-08-27T07:50:47.282Z,17.32
2023-08-27T07:55:51.162Z,17.35
2023-08-27T08:01:01.188Z,17.90
2023-08-27T08:06:05.249Z,18.17
2023-08-27T08:11:08.548Z,18.32
2023-08-27T08:16:13.412Z,18.43
2023-08-27T08:21:16.521Z,18.92
2023-08-27T08:26:19.545Z,18.99
2023-08-27T08:31:24.196Z,19.26
2023-08-27T08:36:27.299Z,19.51
2023-08-27T08:41:30.440Z,19.82
2023-08-27T08:46:38.083Z,19.52
2023-08-27T08:51:41.390Z,18.50
2023-08-27T08:56:51.010Z,17.55
2023-08-27T09:01:55.636Z,17.51
2023-08-27T09:06:59.708Z,17.79
2023-08-27T09:12:03.734Z,18.25
2023-08-27T09:17:14.585Z,18.75
2023-08-27T09:22:18.016Z,19.00
2023-08-27T09:27:21.873Z,18.83
2023-08-27T09:32:26.401Z,18.84
2023-08-27T09:37:30.124Z,19.04
2023-08-27T09:42:34.040Z,19.37
2023-08-27T09:53:14.053Z,20.07
2023-08-27T09:58:17.271Z,18.66
2023-08-27T10:03:25.067Z,17.11
2023-08-27T10:08:28.437Z,16.63
2023-08-27T10:13:31.924Z,15.38
2023-08-27T11:57:58.274Z,15.38
2023-08-27T12:03:02.145Z,15.75
2023-08-27T12:08:08.030Z,16.25
2023-08-27T12:13:12.465Z,16.51
2023-08-27T12:18:15.537Z,16.84
2023-08-27T12:23:18.827Z,17.25
2023-08-27T12:28:24.063Z,17.42
2023-08-27T12:33:38.591Z,17.53
2023-08-27T12:38:41.763Z,17.85
2023-08-27T12:43:46.246Z,18.13
2023-08-27T12:48:49.987Z,18.36
2023-08-27T12:53:53.186Z,18.63
2023-08-27T12:58:57.666Z,18.93
2023-08-27T13:04:01.321Z,19.29
2023-08-27T13:09:05.412Z,19.67
2023-08-27T13:14:09.985Z,20.12
2023-08-27T13:19:13.205Z,20.06
2023-08-27T13:24:18.219Z,20.18
2023-08-27T13:29:22.932Z,19.98
2023-08-27T13:34:26.552Z,20.28
2023-08-27T13:39:31.305Z,19.76
2023-08-27T13:44:36.081Z,19.41
2023-08-27T13:49:39.263Z,19.53
2023-08-27T13:54:42.469Z,19.25
2023-08-27T13:59:47.005Z,18.90
2023-08-27T14:04:50.211Z,17.87
2023-08-27T14:09:53.322Z,17.29
2023-08-27T14:14:57.716Z,17.50
2023-08-27T14:20:01.019Z,17.93
2023-08-27T14:25:04.932Z,17.67
2023-08-27T14:30:10.612Z,18.10
2023-08-27T14:35:15.533Z,18.59
2023-08-27T14:40:18.564Z,18.95
2023-08-27T14:45:23.180Z,18.90
2023-08-27T14:50:26.375Z,18.62
2023-08-27T14:55:31.173Z,17.71
2023-08-27T15:00:35.850Z,16.98
2023-08-27T15:05:39.115Z,16.24
2023-08-27T15:10:42.219Z,16.29
2023-08-27T15:15:46.709Z,16.24
2023-08-27T15:20:49.842Z,16.37
2023-08-27T15:25:53.025Z,16.21
2023-08-27T15:30:57.579Z,16.47
2023-08-27T15:36:01.163Z,16.81
2023-08-27T15:41:04.543Z,16.88
2023-08-27T15:46:09.278Z,17.01
2023-08-27T15:51:12.362Z,17.21
2023-08-27T15:56:15.470Z,17.07
2023-08-27T16:01:23.381Z,17.13
2023-08-27T16:06:26.543Z,17.29
2023-08-27T16:11:29.565Z,17.49
2023-08-27T16:16:34.425Z,17.56
2023-08-27T16:21:37.529Z,17.73
2023-08-27T16:26:40.751Z,18.00
2023-08-27T16:31:45.309Z,18.40
2023-08-27T16:36:48.442Z,18.38
2023-08-27T16:41:51.504Z,18.39
2023-08-27T16:46:56.781Z,18.39
2023-08-27T16:51:59.779Z,18.62
2023-08-27T16:57:02.819Z,18.58
2023-08-27T17:02:08.940Z,18.63
2023-08-27T17:07:12.145Z,18.53
2023-08-27T17:12:15.232Z,18.69
2023-08-27T17:17:19.719Z,18.66
2023-08-27T17:22:24.301Z,18.66
2023-08-27T17:27:27.487Z,18.68
2023-08-27T17:32:37.838Z,18.69
2023-08-27T17:37:41.182Z,18.62
2023-08-27T17:42:44.293Z,18.59
2023-08-27T17:48:05.981Z,18.34
2023-08-27T17:53:11.937Z,18.14
2023-08-27T17:58:15.044Z,18.00
2023-08-27T18:03:19.687Z,17.92
2023-08-27T18:08:22.940Z,17.77
2023-08-27T18:13:26.358Z,17.69
2023-08-27T18:18:31.743Z,17.68
2023-08-27T18:23:34.941Z,17.63
2023-08-27T18:28:42.041Z,17.60
2023-08-27T18:33:47.079Z,17.48
2023-08-27T18:38:50.740Z,17.41
2023-08-27T18:43:53.907Z,17.38
2023-08-27T18:48:58.350Z,17.30
2023-08-27T18:54:01.810Z,17.20
2023-08-27T18:59:04.947Z,17.16
2023-08-27T19:04:12.624Z,17.08
2023-08-27T19:09:18.195Z,17.03
2023-08-27T19:14:21.481Z,16.95
2023-08-27T19:19:27.766Z,16.82
2023-08-27T19:24:31.556Z,16.72
2023-08-27T19:29:34.797Z,16.69
2023-08-27T19:34:39.429Z,16.64
2023-08-27T19:39:42.629Z,16.64
2023-08-27T19:44:45.711Z,16.65
2023-08-27T19:49:50.256Z,16.67
2023-08-27T19:54:54.969Z,16.65
2023-08-27T19:59:58.742Z,16.62
2023-08-27T20:05:03.850Z,16.47
2023-08-27T20:10:07.899Z,16.42
2023-08-27T20:15:11.957Z,16.31
2023-08-27T20:20:16.858Z,16.23
2023-08-27T20:25:20.197Z,16.16
2023-08-27T20:30:23.679Z,16.06
2023-08-27T20:35:28.398Z,15.97
2023-08-27T20:40:31.695Z,15.97
2023-08-27T20:45:36.258Z,15.91
2023-08-27T20:50:41.104Z,15.92
2023-08-27T20:55:44.243Z,15.88
2023-08-27T21:00:49.253Z,15.84
2023-08-27T21:05:54.162Z,15.77
2023-08-27T21:10:58.030Z,15.76
2023-08-27T21:16:01.157Z,15.73
2023-08-27T21:21:05.912Z,15.66
2023-08-27T21:26:08.888Z,15.61
2023-08-27T21:31:31.736Z,15.49
2023-08-27T21:36:36.500Z,15.44
2023-08-27T21:41:40.031Z,15.38
2023-08-27T21:46:43.212Z,15.43
2023-08-27T21:51:47.568Z,15.37
2023-08-27T21:56:50.625Z,15.30
2023-08-27T22:01:53.856Z,15.24
2023-08-27T22:06:58.424Z,15.19
2023-08-27T22:12:02.342Z,15.15
2023-08-27T22:17:07.545Z,15.13
2023-08-27T22:22:12.398Z,15.04
2023-08-27T22:27:15.943Z,15.05
2023-08-27T22:32:19.125Z,15.03
2023-08-27T22:37:23.670Z,15.05
2023-08-27T22:42:26.802Z,15.02
2023-08-27T22:47:30.448Z,15.07
2023-08-27T22:52:35.081Z,15.03
2023-08-27T22:57:54.106Z,15.05
2023-08-27T23:02:57.505Z,15.01
2023-08-27T23:08:02.260Z,14.98
2023-08-27T23:13:06.207Z,14.94
2023-08-27T23:18:10.450Z,14.92
2023-08-27T23:23:15.291Z,14.90
2023-08-27T23:28:18.920Z,14.93
2023-08-27T23:33:22.134Z,14.94
2023-08-27T23:38:26.912Z,14.93
2023-08-27T23:43:30.194Z,14.91
2023-08-27T23:48:33.241Z,14.90
2023-08-27T23:53:37.721Z,14.83
2023-08-27T23:58:43.108Z,14.80
